Time;durP1;ratioP1;P1;durP2;ratioP2;P2;SDS_P1;SDS_P2;PMS_P1;PMS_P2;Temp;Humidity;BMP_temperature;BMP_pressure;BME280_temperature;BME280_humidity;BME280_pressure;Samples;Min_cycle;Max_cycle;Signal;HPM_P1;HPM_P2
2022/01/22 00:02:13;;;;;;;9.63;5.35;;;4.70;87.70;;;;;;6047272;23;20496;-68
2022/01/22 00:04:40;;;;;;;11.10;5.28;;;4.70;87.70;;;;;;6048663;23;20170;-69
2022/01/22 00:07:09;;;;;;;9.20;4.35;;;4.70;87.70;;;;;;6048262;23;20302;-67
2022/01/22 00:09:39;;;;;;;9.63;4.22;;;4.70;87.70;;;;;;6048891;23;20037;-68
2022/01/22 00:12:11;;;;;;;9.73;5.22;;;4.70;87.70;;;;;;6049624;23;20429;-68
2022/01/22 00:14:39;;;;;;;11.70;4.30;;;4.70;87.70;;;;;;6049748;23;20421;-69
2022/01/22 00:17:06;;;;;;;9.88;4.78;;;4.70;87.70;;;;;;6053115;23;20078;-69
2022/01/22 00:19:36;;;;;;;8.15;3.85;;;4.70;87.70;;;;;;4360898;23;10020687;-69
2022/01/22 00:22:04;;;;;;;9.30;4.00;;;4.70;87.80;;;;;;2917654;23;10002022;-69
2022/01/22 00:24:37;;;;;;;11.52;5.80;;;4.70;87.70;;;;;;6049176;23;20026;-69
2022/01/22 00:27:05;;;;;;;9.13;4.65;;;4.70;87.70;;;;;;6053278;23;20066;-69
2022/01/22 00:29:33;;;;;;;10.20;4.97;;;4.70;87.70;;;;;;6053658;23;20030;-67
2022/01/22 00:32:00;;;;;;;11.85;5.55;;;4.70;87.70;;;;;;6054436;23;20021;-69
2022/01/22 00:34:27;;;;;;;7.93;4.50;;;4.80;87.60;;;;;;6070645;23;20047;-67
2022/01/22 00:36:54;;;;;;;9.15;4.68;;;4.70;87.60;;;;;;6048426;23;20117;-68
2022/01/22 00:39:21;;;;;;;10.85;5.05;;;4.80;87.60;;;;;;6053085;23;20022;-68
2022/01/22 00:41:48;;;;;;;9.55;5.05;;;4.80;87.60;;;;;;6053296;23;20478;-69
2022/01/22 00:44:15;;;;;;;11.55;4.60;;;4.80;87.60;;;;;;6052023;23;20485;-68
2022/01/22 00:46:43;;;;;;;12.27;4.97;;;4.80;87.50;;;;;;6054401;23;20046;-70
2022/01/22 00:49:10;;;;;;;9.85;5.03;;;4.80;87.50;;;;;;6054332;23;20027;-70
2022/01/22 00:51:37;;;;;;;11.60;5.28;;;4.80;87.60;;;;;;6054079;23;20023;-70
2022/01/22 00:54:04;;;;;;;8.25;4.20;;;4.80;87.50;;;;;;6054315;23;20019;-69
2022/01/22 00:56:31;;;;;;;9.10;4.40;;;4.80;87.50;;;;;;6076150;23;20029;-69
2022/01/22 00:58:58;;;;;;;10.30;4.70;;;4.80;87.50;;;;;;6054214;23;20027;-69
2022/01/22 01:01:25;;;;;;;10.88;4.75;;;4.80;87.50;;;;;;6051280;23;20027;-69
2022/01/22 01:03:56;;;;;;;11.63;4.63;;;4.80;87.40;;;;;;6075858;23;20323;-69
2022/01/22 01:06:23;;;;;;;7.75;4.45;;;4.80;87.50;;;;;;6048470;23;20070;-68
2022/01/22 01:08:51;;;;;;;9.30;4.43;;;4.80;87.50;;;;;;6047812;23;20733;-68
2022/01/22 01:11:18;;;;;;;8.40;4.20;;;4.80;87.50;;;;;;6073715;23;20023;-68
2022/01/22 01:13:49;;;;;;;8.30;3.50;;;4.80;87.40;;;;;;6050713;23;20041;-69
2022/01/22 01:16:20;;;;;;;8.32;4.15;;;4.90;87.40;;;;;;6074222;23;20112;-69
2022/01/22 01:32:42;;;;;;;6.68;3.28;;;4.90;87.30;;;;;;6072131;23;20083;-67
2022/01/22 01:35:09;;;;;;;8.00;3.35;;;5.00;87.20;;;;;;6070618;23;20027;-69
2022/01/22 01:37:38;;;;;;;5.82;3.15;;;4.90;87.10;;;;;;6069884;23;20033;-69
2022/01/22 01:40:08;;;;;;;5.63;3.17;;;4.90;87.10;;;;;;6047385;23;20027;-69
2022/01/22 01:42:43;;;;;;;7.60;4.00;;;4.90;87.00;;;;;;6050085;23;20520;-69
2022/01/22 01:45:11;;;;;;;6.72;3.50;;;4.90;87.10;;;;;;6050352;23;20031;-69
2022/01/22 01:47:48;;;;;;;6.45;3.15;;;4.90;87.10;;;;;;6050086;23;20484;-69
2022/01/22 01:50:15;;;;;;;6.88;3.22;;;5.00;87.00;;;;;;6051776;23;20046;-68
2022/01/22 01:52:48;;;;;;;6.28;3.25;;;5.00;86.90;;;;;;6074297;23;20039;-69
2022/01/22 01:55:21;;;;;;;6.30;3.30;;;5.00;86.80;;;;;;6049667;23;20022;-67
2022/01/22 01:57:47;;;;;;;6.38;2.92;;;5.00;86.80;;;;;;6050852;23;20018;-69
2022/01/22 02:00:20;;;;;;;;;;;4.90;86.90;;;;;;6072402;23;20042;-69
2022/01/22 02:02:55;;;;;;;6.07;2.38;;;5.00;86.80;;;;;;6050761;23;20135;-68
2022/01/22 02:05:25;;;;;;;7.97;2.67;;;5.00;86.80;;;;;;6051088;23;20029;-68
2022/01/22 02:07:59;;;;;;;4.63;2.53;;;5.00;86.70;;;;;;6075571;23;20073;-68
2022/01/22 02:10:37;;;;;;;5.70;2.75;;;5.00;86.70;;;;;;6051483;23;20477;-69
2022/01/22 02:24:25;;;;;;;4.47;2.33;;;5.10;86.30;;;;;;6075488;23;20424;-67
2022/01/22 02:26:52;;;;;;;5.88;3.03;;;5.00;86.20;;;;;;6049814;23;20026;-70
2022/01/22 02:29:25;;;;;;;7.00;2.05;;;5.00;86.30;;;;;;6077919;23;20463;-71
2022/01/22 02:32:45;;;;;;;4.57;2.53;;;5.10;86.30;;;;;;6044196;23;20050;-69
2022/01/22 02:35:17;;;;;;;3.58;2.00;;;5.10;86.30;;;;;;6054459;23;20093;-70
2022/01/22 02:37:53;;;;;;;3.38;2.13;;;5.10;86.20;;;;;;6052920;23;20023;-69
2022/01/22 02:40:25;;;;;;;4.72;2.70;;;5.00;86.10;;;;;;6052861;23;20023;-71
2022/01/22 02:42:52;;;;;;;3.95;2.60;;;5.00;86.10;;;;;;6076262;23;20025;-70
2022/01/22 02:45:23;;;;;;;3.83;2.13;;;5.00;85.90;;;;;;6053954;23;20422;-70
2022/01/22 02:47:50;;;;;;;3.75;1.77;;;5.00;85.90;;;;;;6056374;23;20034;-70
2022/01/22 02:50:17;;;;;;;3.05;2.15;;;5.10;85.90;;;;;;6054705;23;20106;-71
2022/01/22 02:52:47;;;;;;;4.07;2.00;;;5.10;85.80;;;;;;6053406;23;20050;-70
2022/01/22 02:55:15;;;;;;;3.60;1.80;;;5.10;85.90;;;;;;6053112;23;20553;-70
2022/01/22 02:57:45;;;;;;;2.88;1.50;;;5.10;85.80;;;;;;6071997;23;20331;-68
2022/01/22 03:00:14;;;;;;;;;;;5.10;85.70;;;;;;6072355;23;20067;-68
2022/01/22 03:02:41;;;;;;;2.72;1.33;;;5.10;85.60;;;;;;6074034;23;19941;-70
2022/01/22 03:05:10;;;;;;;3.88;1.90;;;5.00;85.60;;;;;;6048506;23;20106;-70
2022/01/22 03:07:39;;;;;;;4.28;2.20;;;5.10;85.60;;;;;;6050698;23;20433;-70
2022/01/22 03:10:09;;;;;;;4.95;2.17;;;5.10;85.60;;;;;;6048924;23;20027;-70
2022/01/22 03:13:05;;;;;;;3.78;1.55;;;5.00;85.50;;;;;;6050259;23;20110;-69
2022/01/22 03:15:48;;;;;;;6.93;2.45;;;5.10;85.50;;;;;;6047880;23;20026;-69
2022/01/22 03:18:20;;;;;;;5.45;2.72;;;5.10;85.50;;;;;;6046758;23;20354;-70
2022/01/22 03:21:04;;;;;;;5.32;1.60;;;5.10;85.40;;;;;;6050831;23;20473;-70
2022/01/22 03:29:05;;;;;;;4.47;1.48;;;5.10;85.30;;;;;;6073077;23;20033;-70
2022/01/22 03:31:33;;;;;;;;;;;5.10;85.20;;;;;;6051938;23;20029;-70
2022/01/22 03:34:00;;;;;;;2.58;1.48;;;5.10;85.20;;;;;;6051297;23;19971;-70
2022/01/22 03:36:30;;;;;;;2.83;1.55;;;5.10;85.20;;;;;;6049510;23;20086;-70
2022/01/22 03:38:58;;;;;;;3.38;1.30;;;5.10;85.20;;;;;;6067102;23;20022;-70
2022/01/22 03:41:29;;;;;;;4.25;1.75;;;5.10;85.10;;;;;;6067607;23;20513;-68
2022/01/22 03:43:57;;;;;;;2.17;1.25;;;5.10;85.20;;;;;;6048959;23;20509;-69
2022/01/22 03:46:24;;;;;;;3.25;2.05;;;5.10;85.20;;;;;;6051659;23;20521;-70
2022/01/22 03:48:53;;;;;;;4.38;1.70;;;5.10;85.10;;;;;;6075512;23;20026;-69
2022/01/22 03:51:20;;;;;;;2.95;1.45;;;5.10;85.10;;;;;;6053511;23;20378;-70
2022/01/22 03:53:47;;;;;;;2.75;1.55;;;5.10;85.00;;;;;;6052335;23;20395;-68
2022/01/22 03:56:16;;;;;;;2.78;1.50;;;5.10;85.00;;;;;;6052316;23;20027;-69
2022/01/22 03:59:02;;;;;;;2.70;1.75;;;5.10;85.00;;;;;;6053337;23;20035;-69
2022/01/22 04:02:18;;;;;;;5.45;1.60;;;5.10;85.00;;;;;;6072988;23;20097;-72
2022/01/22 04:04:52;;;;;;;2.53;1.40;;;5.20;84.80;;;;;;6051842;23;20078;-69
2022/01/22 04:10:06;;;;;;;2.88;1.33;;;5.10;84.70;;;;;;6072365;23;20110;-70
2022/01/22 04:12:41;;;;;;;2.25;1.35;;;5.10;84.80;;;;;;6048668;23;20029;-70
2022/01/22 04:15:13;;;;;;;2.03;1.05;;;5.10;84.80;;;;;;6052236;23;20023;-68
2022/01/22 04:26:03;;;;;;;1.70;0.80;;;5.10;84.80;;;;;;6054387;23;20030;-70
2022/01/22 04:28:30;;;;;;;1.70;0.75;;;5.10;84.80;;;;;;6075618;23;20022;-69
2022/01/22 04:30:58;;;;;;;2.33;1.30;;;5.10;84.80;;;;;;6054373;23;20057;-70
2022/01/22 04:33:25;;;;;;;2.28;1.23;;;5.10;84.70;;;;;;6053859;23;20127;-70
2022/01/22 04:35:54;;;;;;;1.55;0.82;;;5.10;84.70;;;;;;6076274;23;20402;-70
2022/01/22 04:38:21;;;;;;;3.53;1.10;;;5.10;84.70;;;;;;6075810;23;20481;-69
2022/01/22 04:40:48;;;;;;;3.05;1.33;;;5.10;84.80;;;;;;6050756;23;20023;-68
2022/01/22 04:43:17;;;;;;;1.88;1.05;;;5.10;84.70;;;;;;6054821;23;20023;-69
2022/01/22 04:46:04;;;;;;;1.88;1.10;;;5.10;84.70;;;;;;6051085;23;20057;-68
2022/01/22 04:48:48;;;;;;;1.80;1.10;;;5.10;84.70;;;;;;6051027;23;20022;-69
2022/01/22 04:56:50;;;;;;;2.00;0.95;;;5.10;84.70;;;;;;6050434;23;20134;-69
2022/01/22 04:59:19;;;;;;;2.58;1.30;;;5.10;84.60;;;;;;6050367;23;20086;-71
2022/01/22 05:01:47;;;;;;;2.28;0.93;;;5.10;84.70;;;;;;6072971;23;20098;-70
2022/01/22 05:04:24;;;;;;;1.60;0.88;;;5.10;84.70;;;;;;6074816;23;20033;-70
2022/01/22 05:07:10;;;;;;;1.77;0.95;;;5.10;84.70;;;;;;6052635;23;20117;-68
2022/01/22 05:09:49;;;;;;;1.95;1.10;;;5.20;84.70;;;;;;6052175;23;20027;-70
2022/01/22 05:12:16;;;;;;;2.42;0.98;;;5.10;84.70;;;;;;6051401;23;20031;-70
2022/01/22 05:14:44;;;;;;;1.58;0.88;;;5.10;84.80;;;;;;6051712;23;20579;-70
2022/01/22 05:17:12;;;;;;;1.48;0.73;;;5.10;84.80;;;;;;6049737;23;20023;-71
2022/01/22 05:19:50;;;;;;;;;;;5.10;84.70;;;;;;6049576;23;20018;-69
2022/01/22 05:22:30;;;;;;;1.85;0.77;;;5.20;84.70;;;;;;6052809;23;19921;-69
2022/01/22 05:25:02;;;;;;;1.35;0.90;;;5.10;84.70;;;;;;6074797;23;20090;-69
2022/01/22 05:39:05;;;;;;;1.92;0.95;;;5.20;84.60;;;;;;6078649;23;20035;-69
2022/01/22 05:41:32;;;;;;;1.20;0.75;;;5.20;84.60;;;;;;6053855;23;20061;-70
2022/01/22 05:43:59;;;;;;;1.83;0.93;;;5.20;84.60;;;;;;6054142;23;20046;-69
2022/01/22 05:46:26;;;;;;;1.27;0.85;;;5.20;84.60;;;;;;6053254;23;20098;-70
2022/01/22 05:48:53;;;;;;;2.38;0.82;;;5.20;84.50;;;;;;6053897;23;20022;-70
2022/01/22 05:51:21;;;;;;;2.08;0.93;;;5.20;84.50;;;;;;6053358;23;20125;-70
2022/01/22 05:54:12;;;;;;;1.52;0.90;;;5.20;84.50;;;;;;6055068;23;20118;-69
2022/01/22 05:59:37;;;;;;;1.17;0.80;;;5.20;84.60;;;;;;6078047;23;20034;-70
2022/01/22 06:02:06;;;;;;;2.15;1.17;;;5.20;84.60;;;;;;6052372;23;20023;-70
2022/01/22 06:04:33;;;;;;;2.53;1.38;;;5.20;84.60;;;;;;6054724;23;20070;-70
2022/01/22 06:07:07;;;;;;;2.28;1.38;;;5.20;84.50;;;;;;6051638;23;20027;-70
2022/01/22 06:09:38;;;;;;;2.58;1.25;;;5.20;84.60;;;;;;6075707;23;20026;-70
2022/01/22 06:12:16;;;;;;;4.13;1.38;;;5.20;84.50;;;;;;6054128;23;20192;-70
2022/01/22 06:14:51;;;;;;;2.35;1.33;;;5.20;84.60;;;;;;6055042;23;20391;-69
2022/01/22 06:17:26;;;;;;;1.90;1.10;;;5.20;84.60;;;;;;3925134;23;10022011;-69
2022/01/22 06:19:55;;;;;;;1.45;0.90;;;5.20;84.60;;;;;;2712394;23;10002335;-69
2022/01/22 06:22:24;;;;;;;3.55;1.58;;;5.20;84.60;;;;;;6079017;23;20027;-69
2022/01/22 06:24:51;;;;;;;1.42;0.90;;;5.20;84.60;;;;;;6077387;23;20019;-69
2022/01/22 06:27:19;;;;;;;4.75;1.33;;;5.20;84.60;;;;;;6075463;23;20481;-68
2022/01/22 06:29:46;;;;;;;1.98;1.17;;;5.20;84.60;;;;;;6054757;23;20035;-68
2022/01/22 06:32:14;;;;;;;3.35;1.38;;;5.20;84.60;;;;;;6049927;23;20023;-71
2022/01/22 06:34:43;;;;;;;5.57;1.67;;;5.20;84.60;;;;;;6050715;23;20350;-70
2022/01/22 06:37:11;;;;;;;3.17;1.58;;;5.20;84.60;;;;;;6053407;23;20106;-68
2022/01/22 06:42:59;;;;;;;2.40;1.30;;;5.20;84.70;;;;;;6053664;23;20520;-70
2022/01/22 06:45:40;;;;;;;2.67;1.30;;;5.20;84.80;;;;;;6076073;23;20027;-69
2022/01/22 06:48:10;;;;;;;2.22;1.15;;;5.20;84.70;;;;;;6053102;23;20038;-71
2022/01/22 06:50:59;;;;;;;2.78;1.45;;;5.20;84.70;;;;;;6054990;23;20033;-69
2022/01/22 06:53:26;;;;;;;3.22;1.40;;;5.20;84.80;;;;;;6045902;23;20027;-70
2022/01/22 06:55:58;;;;;;;4.65;1.85;;;5.20;84.80;;;;;;6051104;23;20015;-70
2022/01/22 06:58:28;;;;;;;2.55;1.23;;;5.20;84.80;;;;;;6072075;23;20106;-69
2022/01/22 07:01:05;;;;;;;2.58;1.20;;;5.20;84.80;;;;;;6047403;23;20026;-70
2022/01/22 07:03:42;;;;;;;3.08;1.75;;;5.20;84.80;;;;;;6072937;23;20113;-69
2022/01/22 07:06:24;;;;;;;3.72;1.45;;;5.20;84.80;;;;;;6049917;23;20381;-69
2022/01/22 07:08:52;;;;;;;3.17;1.30;;;5.20;84.70;;;;;;6050460;23;20335;-69
2022/01/22 07:11:21;;;;;;;3.83;1.75;;;5.20;84.70;;;;;;6050498;23;20027;-69
2022/01/22 07:13:49;;;;;;;3.55;1.52;;;5.20;84.70;;;;;;6075463;23;20696;-70
2022/01/22 07:16:17;;;;;;;2.35;1.42;;;5.20;84.70;;;;;;6051587;23;20047;-71
2022/01/22 07:18:48;;;;;;;;;;;5.20;84.70;;;;;;6051177;23;20030;-70
2022/01/22 07:21:19;;;;;;;2.40;1.20;;;5.30;84.60;;;;;;6051800;23;19928;-70
2022/01/22 07:24:22;;;;;;;3.10;1.50;;;5.20;84.60;;;;;;6052362;23;20792;-70
2022/01/22 07:26:51;;;;;;;2.67;1.63;;;5.30;84.60;;;;;;6050573;23;20350;-70
2022/01/22 07:29:21;;;;;;;3.28;1.58;;;5.30;84.70;;;;;;6074352;23;20033;-70
2022/01/22 07:31:48;;;;;;;3.58;1.58;;;5.20;84.70;;;;;;6073395;23;20039;-69
2022/01/22 07:34:16;;;;;;;4.95;2.10;;;5.30;84.70;;;;;;6049710;23;20029;-71
2022/01/22 07:36:43;;;;;;;4.00;2.17;;;5.30;84.70;;;;;;6072434;23;20524;-70
2022/01/22 07:39:09;;;;;;;3.47;1.55;;;5.30;84.80;;;;;;6073695;23;20133;-69
2022/01/22 07:41:51;;;;;;;3.65;1.70;;;5.30;84.80;;;;;;6050675;23;20015;-69
2022/01/22 07:44:45;;;;;;;3.50;1.67;;;5.30;84.80;;;;;;6048564;23;20073;-70
2022/01/22 07:47:14;;;;;;;6.50;1.83;;;5.30;84.80;;;;;;6074058;23;20046;-70
2022/01/22 07:49:42;;;;;;;2.72;1.55;;;5.30;84.80;;;;;;6075854;23;20023;-70
2022/01/22 07:52:09;;;;;;;4.80;2.83;;;5.30;84.90;;;;;;6052530;23;20877;-71
2022/01/22 07:54:37;;;;;;;3.60;1.80;;;5.30;84.80;;;;;;6050192;23;20417;-69
2022/01/22 07:57:05;;;;;;;5.35;2.10;;;5.30;84.90;;;;;;6074981;23;20050;-69
2022/01/22 07:59:33;;;;;;;4.60;1.98;;;5.30;84.90;;;;;;6050586;23;20141;-71
2022/01/22 08:02:03;;;;;;;4.95;1.90;;;5.30;84.90;;;;;;6046043;23;20031;-69
2022/01/22 08:04:53;;;;;;;4.95;1.75;;;5.30;84.90;;;;;;6050473;23;20071;-70
2022/01/22 08:07:46;;;;;;;2.67;1.40;;;5.30;84.90;;;;;;6050375;23;20026;-71
2022/01/22 08:10:32;;;;;;;3.33;1.63;;;5.30;84.90;;;;;;6049813;23;20417;-70
2022/01/22 08:13:00;;;;;;;3.25;1.98;;;5.30;85.00;;;;;;6049017;23;20090;-71
2022/01/22 08:15:27;;;;;;;5.82;1.92;;;5.30;85.00;;;;;;6072065;23;20029;-70
2022/01/22 08:17:55;;;;;;;7.55;2.83;;;5.30;85.00;;;;;;6047012;23;20034;-69
2022/01/22 08:20:24;;;;;;;5.32;2.63;;;5.30;85.10;;;;;;6047571;23;20417;-69
2022/01/22 08:22:51;;;;;;;3.30;2.08;;;5.30;85.10;;;;;;6051203;23;20103;-70
2022/01/22 08:25:39;;;;;;;5.20;2.42;;;5.30;85.20;;;;;;6048198;23;20029;-70
2022/01/22 08:28:57;;;;;;;4.75;2.33;;;5.30;85.20;;;;;;6017710;23;20096;-69
2022/01/22 08:32:06;;;;;;;4.22;2.03;;;5.30;85.20;;;;;;5094932;27;21702;-69
2022/01/22 08:37:20;;;;;;;3.35;2.00;;;5.30;85.20;;;;;;5076781;28;20087;-69
2022/01/22 08:39:47;;;;;;;6.68;2.60;;;5.30;85.20;;;;;;5005313;28;21367;-70
2022/01/22 08:42:15;;;;;;;4.05;2.15;;;5.40;85.20;;;;;;979803;28;10023011;-69
2022/01/22 08:44:42;;;;;;;5.22;2.05;;;5.40;85.20;;;;;;5064652;28;20665;-69
2022/01/22 08:47:16;;;;;;;6.70;2.78;;;5.40;85.20;;;;;;5063693;28;20056;-69
2022/01/22 08:49:43;;;;;;;4.18;2.10;;;5.40;85.20;;;;;;5081890;28;20052;-70
2022/01/22 08:52:13;;;;;;;5.85;2.45;;;5.30;85.10;;;;;;5048658;28;20076;-70
2022/01/22 08:54:42;;;;;;;4.57;2.33;;;5.40;85.20;;;;;;5083239;28;20765;-69
2022/01/22 08:57:10;;;;;;;5.25;2.17;;;5.40;85.10;;;;;;5060887;28;20048;-71
2022/01/22 08:59:48;;;;;;;4.93;2.28;;;5.40;85.10;;;;;;5057786;28;20049;-68
2022/01/22 09:02:16;;;;;;;4.72;2.33;;;5.40;85.10;;;;;;5042935;28;20057;-69
2022/01/22 09:04:54;;;;;;;5.53;2.40;;;5.40;85.10;;;;;;5039986;28;20068;-69
2022/01/22 09:07:41;;;;;;;3.83;1.92;;;5.40;85.10;;;;;;5061353;28;20055;-70
2022/01/22 09:10:11;;;;;;;4.97;2.42;;;5.40;85.20;;;;;;5062413;28;20147;-68
2022/01/22 09:12:38;;;;;;;4.07;2.40;;;5.40;85.20;;;;;;5062672;28;20052;-69
2022/01/22 09:15:20;;;;;;;5.10;2.38;;;5.40;85.20;;;;;;5060298;28;20044;-69
2022/01/22 09:17:49;;;;;;;5.22;2.80;;;5.40;85.20;;;;;;5064135;28;20040;-70
2022/01/22 09:20:32;;;;;;;4.88;2.20;;;5.40;85.20;;;;;;5083669;28;20421;-69
2022/01/22 09:22:59;;;;;;;6.20;2.58;;;5.40;85.20;;;;;;5061555;28;20494;-69
2022/01/22 09:25:26;;;;;;;4.80;2.45;;;5.50;85.30;;;;;;5082451;28;20049;-69
2022/01/22 09:27:53;;;;;;;4.82;2.15;;;5.40;85.30;;;;;;5061122;28;20131;-68
2022/01/22 09:30:22;;;;;;;6.45;2.42;;;5.50;85.30;;;;;;5059052;28;20249;-70
2022/01/22 09:32:51;;;;;;;4.82;2.70;;;5.50;85.30;;;;;;5057015;28;21025;-70
2022/01/22 09:35:36;;;;;;;5.22;2.80;;;5.50;85.30;;;;;;5078719;28;20048;-70
2022/01/22 09:38:27;;;;;;;5.78;2.60;;;5.50;85.30;;;;;;5062429;28;20418;-69
2022/01/22 09:41:15;;;;;;;6.07;2.63;;;5.50;85.30;;;;;;5060468;28;20687;-69
2022/01/22 09:44:01;;;;;;;4.93;2.60;;;5.50;85.30;;;;;;5047512;28;20051;-70
2022/01/22 09:46:46;;;;;;;5.70;2.40;;;5.60;85.30;;;;;;5033016;28;20129;-70
2022/01/22 09:49:38;;;;;;;4.82;2.53;;;5.60;85.30;;;;;;5005188;28;20076;-71
2022/01/22 09:52:14;;;;;;;7.00;3.20;;;5.60;85.30;;;;;;5024649;28;20494;-70
2022/01/22 09:55:07;;;;;;;6.57;2.80;;;5.60;85.30;;;;;;5045213;28;20670;-70
2022/01/22 09:58:13;;;;;;;4.88;2.28;;;5.70;85.20;;;;;;5034035;28;20084;-71
2022/01/22 10:01:22;;;;;;;4.25;2.20;;;5.70;85.20;;;;;;5015647;28;20089;-70
2022/01/22 10:03:50;;;;;;;6.65;2.40;;;5.70;85.20;;;;;;5020432;28;20064;-71
2022/01/22 10:06:50;;;;;;;7.40;2.50;;;5.70;85.20;;;;;;5033117;28;20074;-71
2022/01/22 10:09:55;;;;;;;4.57;2.30;;;5.70;85.20;;;;;;5044658;28;20048;-69
2022/01/22 10:12:45;;;;;;;4.35;2.17;;;5.70;85.20;;;;;;5038470;28;20048;-70
2022/01/22 10:15:17;;;;;;;4.22;2.33;;;5.70;85.30;;;;;;5046442;28;20052;-71
2022/01/22 10:17:50;;;;;;;5.10;2.30;;;5.70;85.10;;;;;;3668308;28;10020754;-70
2022/01/22 10:20:38;;;;;;;5.53;2.58;;;5.70;85.10;;;;;;2426864;28;10002081;-70
2022/01/22 10:23:16;;;;;;;4.65;2.28;;;5.70;85.10;;;;;;5061450;28;20072;-69
2022/01/22 10:25:51;;;;;;;6.55;2.78;;;5.70;85.10;;;;;;5043553;28;20543;-70
2022/01/22 10:28:21;;;;;;;5.38;2.70;;;5.70;85.20;;;;;;5029156;28;20510;-71
2022/01/22 10:30:52;;;;;;;5.05;2.28;;;5.80;85.20;;;;;;5034850;28;20045;-71
2022/01/22 10:33:31;;;;;;;5.60;2.67;;;5.80;85.20;;;;;;5027443;28;20080;-70
2022/01/22 10:36:19;;;;;;;4.82;2.83;;;5.80;85.20;;;;;;5033606;28;20533;-70
2022/01/22 10:39:10;;;;;;;6.32;2.58;;;5.80;85.30;;;;;;5036359;28;20060;-70
2022/01/22 10:41:39;;;;;;;6.22;2.70;;;5.80;85.40;;;;;;5030422;28;20052;-69
2022/01/22 10:44:09;;;;;;;5.55;2.45;;;5.80;85.30;;;;;;5020885;28;20119;-69
2022/01/22 10:46:46;;;;;;;4.72;2.33;;;5.90;85.30;;;;;;5032859;28;20817;-70
2022/01/22 10:49:15;;;;;;;4.60;2.38;;;5.90;85.30;;;;;;5030469;28;20053;-70
2022/01/22 10:51:48;;;;;;;5.18;2.67;;;5.90;85.40;;;;;;5031356;28;20067;-70
2022/01/22 10:54:17;;;;;;;5.90;2.72;;;5.90;85.30;;;;;;5028601;28;20081;-70
2022/01/22 10:56:46;;;;;;;5.88;2.70;;;5.90;85.40;;;;;;5031211;28;20059;-69
2022/01/22 10:59:14;;;;;;;5.20;2.60;;;5.90;85.30;;;;;;5026672;28;20747;-69
2022/01/22 11:01:52;;;;;;;5.07;2.70;;;5.90;85.30;;;;;;5022911;28;20072;-69
2022/01/22 11:04:21;;;;;;;4.70;2.20;;;5.90;85.30;;;;;;5026672;28;20059;-70
2022/01/22 11:06:51;;;;;;;4.45;2.05;;;5.90;85.30;;;;;;5029221;28;20175;-69
2022/01/22 11:09:20;;;;;;;5.43;2.50;;;6.00;85.40;;;;;;5030100;28;20049;-70
2022/01/22 11:11:47;;;;;;;5.82;2.80;;;6.00;85.30;;;;;;5023640;28;20059;-69
2022/01/22 11:14:15;;;;;;;5.03;2.53;;;6.00;85.30;;;;;;5027530;28;20628;-71
2022/01/22 11:16:44;;;;;;;6.03;2.47;;;6.00;85.40;;;;;;5029089;28;20053;-70
2022/01/22 11:19:12;;;;;;;7.10;2.80;;;6.00;85.30;;;;;;5030989;28;20506;-70
2022/01/22 11:21:54;;;;;;;5.93;3.30;;;6.00;85.30;;;;;;5030436;28;20053;-69
2022/01/22 11:24:26;;;;;;;4.85;2.30;;;6.00;85.40;;;;;;5013168;28;20057;-70
2022/01/22 11:27:00;;;;;;;5.38;2.50;;;6.00;85.40;;;;;;5018385;28;20543;-70
2022/01/22 11:29:30;;;;;;;6.38;3.00;;;6.00;85.40;;;;;;5013732;28;20128;-69
2022/01/22 11:32:07;;;;;;;6.25;2.55;;;6.10;85.30;;;;;;5020495;28;20211;-69
2022/01/22 11:34:39;;;;;;;4.80;2.45;;;6.10;85.20;;;;;;5013166;28;20053;-70
2022/01/22 11:37:13;;;;;;;6.20;2.35;;;6.10;85.20;;;;;;5019647;28;20271;-70
2022/01/22 11:39:41;;;;;;;3.75;2.38;;;6.10;85.30;;;;;;5022625;28;20057;-70
2022/01/22 11:42:09;;;;;;;4.95;2.20;;;6.10;85.20;;;;;;5026137;28;20143;-71
2022/01/22 11:44:46;;;;;;;6.95;2.65;;;6.10;85.20;;;;;;5013305;28;20168;-70
2022/01/22 11:47:15;;;;;;;4.82;2.85;;;6.20;85.20;;;;;;5023577;28;20457;-71
2022/01/22 11:50:03;;;;;;;6.43;2.75;;;6.20;85.20;;;;;;5021811;28;20053;-68
2022/01/22 11:52:34;;;;;;;4.63;2.30;;;6.20;85.10;;;;;;5024301;28;20482;-70
2022/01/22 11:55:07;;;;;;;4.80;2.50;;;6.20;85.00;;;;;;5023725;28;20059;-70
2022/01/22 11:57:35;;;;;;;4.80;2.58;;;6.20;85.00;;;;;;5028840;28;20151;-69
2022/01/22 12:00:19;;;;;;;5.55;2.20;;;6.20;85.00;;;;;;5017176;28;20585;-71
2022/01/22 12:02:46;;;;;;;6.32;2.25;;;6.20;84.90;;;;;;5024125;28;20412;-69
2022/01/22 12:05:13;;;;;;;4.47;2.25;;;6.20;85.00;;;;;;5025281;28;20061;-70
2022/01/22 12:07:58;;;;;;;4.68;2.45;;;6.20;85.00;;;;;;5022806;28;20059;-69
2022/01/22 12:10:39;;;;;;;4.05;1.92;;;6.20;85.00;;;;;;5025795;28;20128;-70
2022/01/22 12:16:15;;;;;;;3.92;1.73;;;6.30;84.90;;;;;;5028145;28;20052;-72
2022/01/22 12:18:50;;;;;;;6.80;2.28;;;6.30;85.00;;;;;;5030144;28;20330;-70
2022/01/22 12:21:34;;;;;;;4.30;1.90;;;6.30;84.90;;;;;;5017121;28;20064;-70
2022/01/22 12:24:07;;;;;;;4.32;1.70;;;6.30;84.90;;;;;;5024575;28;20600;-69
2022/01/22 12:27:01;;;;;;;4.60;1.85;;;6.30;84.80;;;;;;5027769;28;20729;-71
2022/01/22 12:29:39;;;;;;;3.70;1.65;;;6.40;84.60;;;;;;5022317;28;20087;-70
2022/01/22 12:32:17;;;;;;;4.47;2.08;;;6.40;84.60;;;;;;5045405;28;20580;-70
2022/01/22 12:35:07;;;;;;;5.07;1.98;;;6.40;84.60;;;;;;5024940;28;20045;-70
2022/01/22 12:37:39;;;;;;;4.55;2.70;;;6.40;84.60;;;;;;5003675;28;20064;-70
2022/01/22 12:40:09;;;;;;;3.58;1.88;;;6.50;84.60;;;;;;4975565;28;20622;-71
2022/01/22 12:42:59;;;;;;;3.69;1.37;;;6.50;84.60;;;;;;544375;28;10151157;-70
2022/01/22 12:45:26;;;;;;;4.65;1.65;;;6.60;84.60;;;;;;5036164;28;20500;-71
2022/01/22 12:47:55;;;;;;;5.03;2.15;;;6.60;84.50;;;;;;5044908;28;20049;-70
2022/01/22 12:50:31;;;;;;;3.28;1.73;;;6.60;84.50;;;;;;5044921;28;20811;-71
2022/01/22 12:53:04;;;;;;;4.28;2.00;;;6.60;84.40;;;;;;5025159;28;20621;-71
2022/01/22 12:58:23;;;;;;;4.47;2.55;;;6.60;84.40;;;;;;5024161;28;20228;-71
2022/01/22 13:00:52;;;;;;;5.60;2.30;;;6.60;84.30;;;;;;5024648;28;20053;-70
2022/01/22 13:03:35;;;;;;;6.32;1.92;;;6.60;84.40;;;;;;5031928;28;20045;-72
2022/01/22 13:06:02;;;;;;;5.03;1.75;;;6.60;84.40;;;;;;5027195;28;20449;-68
2022/01/22 13:08:30;;;;;;;4.40;2.00;;;6.60;84.40;;;;;;5030928;28;20076;-70
2022/01/22 13:11:11;;;;;;;;;;;6.60;84.40;;;;;;5028548;28;20057;-70
2022/01/22 13:13:47;;;;;;;3.80;1.92;;;6.60;84.30;;;;;;5045703;28;20073;-70
2022/01/22 13:16:17;;;;;;;5.20;2.22;;;6.60;84.20;;;;;;5033876;28;20056;-70
2022/01/22 13:18:48;;;;;;;4.23;1.83;;;6.60;84.20;;;;;;5033343;28;20053;-72
2022/01/22 13:21:17;;;;;;;3.47;1.60;;;6.60;84.20;;;;;;5035042;28;20057;-70
2022/01/22 13:23:46;;;;;;;4.30;1.55;;;6.60;84.10;;;;;;5025633;28;20060;-71
2022/01/22 13:26:13;;;;;;;2.78;1.52;;;6.60;84.10;;;;;;5028662;28;20191;-72
2022/01/22 13:28:43;;;;;;;2.40;1.33;;;6.60;84.20;;;;;;5029544;28;20045;-70
2022/01/22 13:31:13;;;;;;;6.45;1.80;;;6.60;84.00;;;;;;5027237;28;20050;-70
2022/01/22 13:33:48;;;;;;;3.77;1.60;;;6.60;84.00;;;;;;5048751;28;20303;-70
2022/01/22 13:36:22;;;;;;;3.88;1.80;;;6.60;84.00;;;;;;5046187;28;20045;-69
2022/01/22 13:49:54;;;;;;;3.15;1.42;;;6.60;84.00;;;;;;5047299;28;24091;-71
2022/01/22 13:52:27;;;;;;;6.65;1.90;;;6.60;83.90;;;;;;5051146;28;20045;-71
2022/01/22 13:54:54;;;;;;;4.28;1.33;;;6.60;83.90;;;;;;5050264;28;24153;-70
2022/01/22 13:57:23;;;;;;;4.20;2.00;;;6.60;83.80;;;;;;5043899;28;20048;-71
2022/01/22 13:59:53;;;;;;;4.85;1.90;;;6.70;83.80;;;;;;5043072;28;20055;-70
2022/01/22 14:02:36;;;;;;;2.67;1.30;;;6.70;83.70;;;;;;5047625;28;20139;-70
2022/01/22 14:05:07;;;;;;;28.45;12.70;;;6.70;83.60;;;;;;5056687;28;20041;-71
2022/01/22 14:07:38;;;;;;;25.63;10.63;;;6.70;83.60;;;;;;5056236;28;20075;-70
2022/01/22 14:10:07;;;;;;;24.73;9.80;;;6.60;83.70;;;;;;5056243;28;20080;-70
2022/01/22 14:12:51;;;;;;;12.73;5.65;;;6.60;83.70;;;;;;5056053;28;20217;-70
2022/01/22 14:15:31;;;;;;;10.48;4.72;;;6.70;83.80;;;;;;5026062;28;20048;-69
2022/01/22 14:18:19;;;;;;;5.23;2.79;;;6.70;83.70;;;;;;1257238;28;10002348;-71
2022/01/22 14:20:48;;;;;;;6.15;2.78;;;6.70;83.70;;;;;;5049456;28;20428;-69
2022/01/22 14:23:17;;;;;;;8.77;2.63;;;6.70;83.50;;;;;;5027651;28;20489;-71
2022/01/22 14:26:01;;;;;;;5.03;2.25;;;6.70;83.50;;;;;;5046073;28;20055;-69
2022/01/22 14:28:43;;;;;;;4.88;2.00;;;6.70;83.50;;;;;;5047658;28;20053;-70
2022/01/22 14:31:31;;;;;;;5.22;2.55;;;6.70;83.40;;;;;;5050832;28;20163;-70
2022/01/22 14:34:00;;;;;;;4.32;2.03;;;6.70;83.40;;;;;;5041446;28;20711;-69
2022/01/22 14:36:28;;;;;;;5.32;2.40;;;6.70;83.40;;;;;;5048732;28;20052;-69
2022/01/22 14:39:12;;;;;;;4.93;2.33;;;6.70;83.40;;;;;;5053639;28;20183;-70
2022/01/22 14:44:36;;;;;;;5.13;1.88;;;6.70;83.40;;;;;;5040584;28;20076;-69
2022/01/22 14:47:11;;;;;;;5.68;2.33;;;6.70;83.40;;;;;;5039208;28;20439;-69
2022/01/22 14:49:41;;;;;;;5.22;1.83;;;6.70;83.40;;;;;;5019994;28;20175;-70
2022/01/22 14:52:09;;;;;;;5.28;2.45;;;6.70;83.50;;;;;;5022260;28;20482;-71
2022/01/22 14:54:38;;;;;;;3.80;1.90;;;6.70;83.50;;;;;;5019610;28;20056;-70
2022/01/22 14:57:07;;;;;;;5.97;2.40;;;6.70;83.50;;;;;;5023351;28;20053;-70
2022/01/22 14:59:36;;;;;;;6.70;2.45;;;6.70;83.50;;;;;;5021294;28;20049;-70